Here is the Quick Look data you requested

The Data originates at the National Weather Service, and is made available here by the UAlbany Department of Atmospheric and Environmental Sciences

Surface Observations

KCVG 170252Z 23012G20KT 5SM RA BR FEW033 BKN047 OVC070 24/22 A2998 RMK AO2
 RAE10B34 SLP140 P0015 60017 T02390217 53009=
KCVG 170320Z 19006KT 10SM -RA FEW060 SCT075 OVC110 23/21 A2997 RMK AO2 P0002
 T02330211=
KCVG 170352Z 19007KT 10SM FEW045 FEW100 BKN150 OVC200 23/21 A2997 RMK AO2 RAE27
 SLP136 P0002 T02280211=
KCVG 170452Z 20011KT 10SM BKN220 23/21 A2996 RMK AO2 SLP132 T02330211 403220222=
KCVG 170552Z 21010KT 10SM FEW012 FEW200 23/21 A2996 RMK AO2 SLP134 60019
 T02280211 10294 20228 55006=
KCVG 170614Z 22010G19KT 10SM BKN014 BKN055 BKN090 23/21 A2996 RMK AO2 T02330211=
KCVG 170652Z 20010KT 10SM FEW009 BKN090 23/21 A2994 RMK AO2 SLP127 T02280211=
KCVG 170734Z 19009KT 10SM BKN013 BKN019 23/21 A2993 RMK AO2 T02280211=
KCVG 170752Z 20009KT 10SM BKN011 OVC020 23/21 A2993 RMK AO2 SLP122 T02280211=
KCVG 170824Z 20010G18KT 4SM RA BR FEW009 BKN016 OVC023 23/21 A2992 RMK AO2
 RAB12 P0001 T02280211=
KCVG 170852Z 19007KT 7SM -RA BKN011 BKN018 OVC041 23/21 A2992 RMK AO2 RAB12
 SLP121 P0008 60008 T02280211 56012=
KCVG 170952Z 19009KT 4SM -RA BR SCT011 BKN046 OVC060 23/21 A2992 RMK AO2 SLP120
 P0008 T02280211=
KCVG 171019Z 19009KT 2 1/2SM -RA BR SCT006 BKN017 OVC033 23/21 A2992 RMK AO2
 VIS 1 3/4 36R P0006 T02280211=
KCVG 171024Z 19010KT 7SM -RA SCT008 BKN017 OVC043 23/21 A2992 RMK AO2 P0006
 T02280211=
KCVG 171043Z 20006KT 10SM BKN008 OVC017 23/21 A2992 RMK AO2 RAE39 P0006
 T02280211=
KCVG 171052Z 21008KT 170V230 10SM BKN008 OVC015 23/21 A2992 RMK AO2 RAE39
 SLP121 BKN V OVC P0006 T02280211=
KCVG 171152Z 21007KT 2SM R18C/4500VP6000FT -RA BR OVC008 23/22 A2993 RMK AO2
 RAB48 SLP123 P0000 60022 70041 T02330217 10233 20228 53002=
KCVG 171213Z 21009KT 6SM -RA BR OVC006 23/22 A2994 RMK AO2 P0003 T02280217=
KCVG 171252Z 22007KT 7SM BKN006 OVC013 23/22 A2994 RMK AO2 RAE45 SLP128 P0003
 T02330217=
KCVG 171352Z 25008KT 10SM BKN007 OVC011 24/22 A2996 RMK AO2 SLP134 T02390222=
KCVG 171452Z 24010G14KT 10SM BKN009 OVC015 26/23 A2996 RMK AO2 SLP135 60003
 T02560228 51010=
KCVG 171506Z 22010KT 10SM SCT009 OVC012 26/23 A2996 RMK AO2 T02560228=
KCVG 171539Z 23007KT 9SM SCT010 BKN015 OVC026 26/23 A2997 RMK AO2 RAB24E39 SHRA
 VC N BINOVC P0000 T02560233=
KCVG 171552Z 24009KT 9SM SCT010 BKN018 BKN026 27/23 A2997 RMK AO2 RAB24E39
 SLP137 SHRA VC N-NE P0000 T02670233=
KCVG 171552Z COR 24009KT 9SM SCT010 BKN018 BKN026 27/23 A2997 RMK AO2 RAB24E39
 SLP137 SHRA N-NE P0000 T02670233=
KCVG 171626Z 24008KT 7SM R18C/4000VP6000FT VCTS SCT014 BKN022 BKN044 27/23
 A2997 RMK AO2 LTG DSNT E SHRA W-NW T02670228=
KCVG 171652Z VRB06KT 10SM VCTS SCT016 BKN024CB BKN050 28/24 A2997 RMK AO2 LTG
 DSNT NE AND E RAB27E50 SLP137 CB N-NE MOV ESE P0000 T02780239=
KCVG 171659Z 25009G15KT 10SM VCTS SCT018 BKN037CB BKN049 27/23 A2997 RMK AO2
 LTG DSNT NE AND E CB NE-E MOV ESE T02720233=
KCVG 171713Z 26008G16KT 10SM FEW020 SCT055CB BKN080 28/23 A2997 RMK AO2 LTG
 DSNT E CB NE-E MOV ESE TCU S T02830233=
KCVG 171739Z 35009KT 10SM FEW022 BKN034CB OVC080 26/22 A2997 RMK AO2 WSHFT 1732
 CB NW-NE MOV ESE T02610217=
KCVG 171742Z 29019G23KT 9SM TS FEW010 BKN020 OVC080 26/22 A2998 RMK AO2 WSHFT
 1732 CB NW-NE MOV ESE T02560217=
KCVG 171742Z COR 29019G23KT 9SM TS FEW010 BKN020 OVC080 26/22 A2998 RMK AO2
 WSHFT 1732 OCNL LTGIC NW TS NW MOV ESE T02560217=
KCVG 171746Z 31014G23KT 1SM R18C/3500VP6000FT TSRA FEW010 BKN022CB OVC080 24/22
 A2999 RMK AO2 RAB44 WSHFT 1732 OCNL LTGIC NW TSB40 NW-N MOV ESE P0001=
KCVG 171748Z 31012G23KT 1 1/2SM R18C/2400VP6000FT +TSRA BR SCT010 BKN021CB
 OVC055 24/22 A2998 RMK AO2 RAB44 WSHFT 1732 OCNL LTGIC NW TSB40 OHD-NW-N MOV
 ESE P0006=
KCVG 171752Z 28010G23KT 1SM R18C/2400VP6000FT +TSRA BR SCT010 BKN022CB OVC032
 23/22 A2998 RMK AO2 RAB44 SLP143 WSHFT 1732 OCNL LTGIC N-NE TSB40 OHD-N-NE MOV
 ESE P0030 60033 T02330217
KCVG 171800Z 27006KT 2SM R18C/5000VP6000FT TSRA BR FEW010 SCT021CB OVC029 23/22
 A2998 RMK AO2 SFC VIS 3 LTG DSNT E VIS S111/2 OCNL LTGIC N-NE TS E-NE MOV ESE
 P0016 T02280217=
KCVG 171800Z COR 27006KT 2SM R18C/5000VP6000FT TSRA BR FEW010 SCT021CB OVC029
 23/22 A2998 RMK AO2 SFC VIS 3 LTG DSNT E VIS S11/2 OCNL LTGIC N-NE TS E-NE MOV
 ESE P0016 T02280217=
KCVG 171806Z 23005KT 7SM -TSRA FEW014 BKN030CB OVC100 23/22 A2998 RMK AO2 LTG
 DSNT E AND SE VIS LWR SE OCNL LTGIC NE TS E MOV ESE P0017 T02330217=
KCVG 171808Z 23005KT 7SM -RA FEW014 BKN030CB OVC100 23/22 A2998 RMK AO2 LTG
 DSNT E AND SE TSE07 VIS LWR SE OCNL LTGIC NE TS E MOV ESE P0017 T02330217=
KCVG 171818Z 20006KT 10SM VCTS -RA BKN033 BKN080 24/22 A2997 RMK AO2 LTG DSNT E
 TSE07 TS MOV ESE P0017 T02390217=
KCVG 171842Z 26009KT 10SM -RA FEW038 BKN080 BKN120 BKN250 26/23 A2996 RMK AO2
 LTG DSNT E AND SE TSE07 CB DSNT SE-SW P0017 T02610228 $=
KCVG 171852Z 26008KT 10SM FEW042 BKN080 BKN120 BKN250 28/23 A2996 RMK AO2 LTG
 DSNT E AND S RAE50 TSE07 SLP133 CB DSNT SE-SW TCU DSNT NW-N VCSH S-SW P0017
 T02780233 $=
KCVG 171900Z 25009KT 10SM VCTS FEW045 SCT080 BKN130 BKN250 27/23 A2996 RMK AO2
 LTG DSNT S CB DSNT SE-SW TCU DSNT NW-N T02670228 $=
KCVG 171915Z 23007KT 10SM FEW040 SCT080 SCT130 BKN250 28/23 A2996 RMK AO2 LTG
 DSNT S CB DSNT SE-S TCU DSNT NW-N T02780233 $=
KCVG 171952Z 27012KT 10SM FEW036 FEW140 SCT250 29/23 A2994 RMK AO2 SLP126 CB
 DSNT SE S TCU DSNT N SW T02940228 $=
KCVG 172052Z 27011KT 10SM FEW025TCU FEW150 FEW200 30/23 A2992 RMK AO2 SLP119
 TCU NE DSNT S NW 60017 T03000233 56022 $=
KCVG 172152Z 26012G16KT 10SM FEW027TCU FEW150 SCT250 30/23 A2992 RMK AO2 SLP121
 TCU N-E DSNT NW T03000233 $=
KCVG 172252Z 33016KT 10SM FEW033TCU SCT080 SCT140 BKN250 30/22 A2992 RMK AO2
 SLP121 TCU OHD-N-E VCSH N-NE T03000217 $=
KCVG 172258Z 34014KT 10SM VCTS SCT033CB SCT080 SCT140 BKN250 28/21 A2992 RMK
 AO2 WSHFT 2246 CB NE MOV SE VCSH NE T02780211 $=
KCVG 172301Z 35011KT 10SM TS SCT033CB SCT080 SCT140 BKN250 27/21 A2992 RMK AO2
 WSHFT 2247 TSB01 WSHFT 2246 OCNL LTGCG NE TS NE MOV SE VCSH NE T02720211 $=
KCVG 172352Z 29004KT 10SM FEW033 FEW080 SCT140 BKN220 27/23 A2994 RMK AO2 PK
 WND 30027/2317 WSHFT 2247 RAB13E32 TSB01E25 SLP126 TS MOV SE CB DSNT E TCU
 DSNT SE SW P0012 60029 T02720228
KCVG 180052Z 29005KT 10SM FEW030TCU FEW050 SCT140 BKN240 26/23 A2994 RMK AO2
 SLP129 TCU S-SW DSNT W T02560228 $=
KCVG 180207Z 26008KT 10SM SCT040 BKN055 BKN140 OVC250 24/23 A2996 RMK AO2 LTG
 DSNT SE AND W TSE07 TS DSIPTD T02440228 $=
KCVG 180252Z 28006KT 10SM FEW030 OVC150 24/22 A2997 RMK AO2 TSE07 SLP140 TS
 DSIPTD LTG DSNT SW T02440222 53013 $=